Time;durP1;ratioP1;P1;durP2;ratioP2;P2;SDS_P1;SDS_P2;PMS_P1;PMS_P2;Temp;Humidity;BMP_temperature;BMP_pressure;BME280_temperature;BME280_humidity;BME280_pressure;Samples;Min_cycle;Max_cycle;Signal;HPM_P1;HPM_P2
2023/06/29 00:00:31;;;;;;;2.40;2.10;;;;;;;;;;4965724;28;20187;-73
2023/06/29 00:03:35;;;;;;;4.17;2.47;;;;;;;;;;4954827;29;20666;-73
2023/06/29 00:06:39;;;;;;;3.53;2.37;;;;;;;;;;4955159;29;20183;-72
2023/06/29 00:09:43;;;;;;;2.40;2.20;;;;;;;;;;4955657;29;20187;-73
2023/06/29 00:12:47;;;;;;;4.57;2.10;;;;;;;;;;4943434;29;20222;-72
2023/06/29 00:15:52;;;;;;;3.00;2.47;;;;;;;;;;4955080;29;20183;-73
2023/06/29 00:18:56;;;;;;;3.97;2.50;;;;;;;;;;4965464;28;20180;-73
2023/06/29 00:22:00;;;;;;;4.53;2.40;;;;;;;;;;4954092;29;20223;-72
2023/06/29 00:25:04;;;;;;;4.23;2.40;;;;;;;;;;4954134;29;20215;-73
2023/06/29 00:28:08;;;;;;;3.40;2.60;;;;;;;;;;4954099;29;20195;-72
2023/06/29 00:31:12;;;;;;;4.07;2.47;;;;;;;;;;4954397;29;20520;-72
2023/06/29 00:34:17;;;;;;;3.63;2.60;;;;;;;;;;4954071;29;20179;-72
2023/06/29 00:37:21;;;;;;;5.47;2.23;;;;;;;;;;4954079;29;20175;-73
2023/06/29 00:40:25;;;;;;;2.87;2.20;;;;;;;;;;4953784;29;20184;-73
2023/06/29 00:43:29;;;;;;;2.50;2.20;;;;;;;;;;4957067;29;20183;-73
2023/06/29 00:46:33;;;;;;;3.07;2.27;;;;;;;;;;4957569;29;20635;-72
2023/06/29 00:49:37;;;;;;;4.30;2.73;;;;;;;;;;4957720;29;20183;-72
2023/06/29 00:52:42;;;;;;;2.70;2.47;;;;;;;;;;4957192;29;20223;-71
2023/06/29 00:55:46;;;;;;;3.13;2.60;;;;;;;;;;4957628;29;20184;-73
2023/06/29 00:58:50;;;;;;;3.00;2.50;;;;;;;;;;4957057;29;20188;-73
2023/06/29 01:01:54;;;;;;;4.43;2.30;;;;;;;;;;4957993;29;20686;-72
2023/06/29 01:04:58;;;;;;;3.93;2.60;;;;;;;;;;4958128;29;20207;-73
2023/06/29 01:08:14;;;;;;;3.03;2.20;;;;;;;;;;4956888;29;20187;-73
2023/06/29 01:11:20;;;;;;;4.00;2.50;;;;;;;;;;4967843;28;20223;-72
2023/06/29 01:14:26;;;;;;;3.00;2.27;;;;;;;;;;4956765;29;20172;-72
2023/06/29 01:17:31;;;;;;;3.17;2.40;;;;;;;;;;4956878;29;20179;-72
2023/06/29 01:20:36;;;;;;;5.43;2.47;;;;;;;;;;4957683;29;20675;-73
2023/06/29 01:23:44;;;;;;;3.07;2.50;;;;;;;;;;4956812;29;20183;-73
2023/06/29 01:26:49;;;;;;;3.27;2.60;;;;;;;;;;4957841;29;20199;-73
2023/06/29 01:29:55;;;;;;;5.43;2.23;;;;;;;;;;4957560;29;20635;-72
2023/06/29 01:32:59;;;;;;;2.63;2.43;;;;;;;;;;4967990;28;20215;-73
2023/06/29 01:36:15;;;;;;;4.27;2.60;;;;;;;;;;4956733;29;20179;-72
2023/06/29 01:39:22;;;;;;;3.30;2.37;;;;;;;;;;4957921;29;20180;-73
2023/06/29 01:42:29;;;;;;;3.67;2.40;;;;;;;;;;4957249;29;20559;-73
2023/06/29 01:45:34;;;;;;;3.27;2.70;;;;;;;;;;4956395;29;20211;-73
2023/06/29 01:48:40;;;;;;;3.03;2.40;;;;;;;;;;4957216;29;20183;-72
2023/06/29 01:51:44;;;;;;;3.30;2.90;;;;;;;;;;4956256;29;20219;-72
2023/06/29 01:54:48;;;;;;;3.87;2.60;;;;;;;;;;4957066;29;20203;-73
2023/06/29 01:57:52;;;;;;;4.67;3.20;;;;;;;;;;4944970;29;20195;-73
2023/06/29 02:00:57;;;;;;;4.20;2.77;;;;;;;;;;4956124;29;20184;-72
2023/06/29 02:04:00;;;;;;;5.37;2.77;;;;;;;;;;4957152;29;20631;-72
2023/06/29 02:07:05;;;;;;;2.73;2.47;;;;;;;;;;4955779;29;20199;-73
2023/06/29 02:10:09;;;;;;;5.00;2.77;;;;;;;;;;4966837;28;20195;-73
2023/06/29 02:13:13;;;;;;;2.83;2.43;;;;;;;;;;4955906;29;20219;-72
2023/06/29 02:16:18;;;;;;;3.97;2.80;;;;;;;;;;4955670;29;20183;-72
2023/06/29 02:19:38;;;;;;;7.20;3.20;;;;;;;;;;4956428;29;20548;-73
2023/06/29 02:22:43;;;;;;;5.30;2.23;;;;;;;;;;4951030;28;20232;-73
2023/06/29 02:25:47;;;;;;;3.63;2.57;;;;;;;;;;4937561;29;20220;-73
2023/06/29 02:28:52;;;;;;;2.80;2.50;;;;;;;;;;4958845;28;20183;-73
2023/06/29 02:31:55;;;;;;;5.73;2.53;;;;;;;;;;4947421;28;20224;-73
2023/06/29 02:35:00;;;;;;;3.87;2.77;;;;;;;;;;4958974;28;20627;-73
2023/06/29 02:38:04;;;;;;;3.40;2.70;;;;;;;;;;4937453;29;20184;-73
2023/06/29 02:41:08;;;;;;;3.90;2.70;;;;;;;;;;4958440;28;20188;-73
2023/06/29 02:44:13;;;;;;;3.27;2.80;;;;;;;;;;4947036;29;20184;-73
2023/06/29 02:47:17;;;;;;;3.83;2.73;;;;;;;;;;4937145;29;20189;-73
2023/06/29 02:50:21;;;;;;;4.00;2.50;;;;;;;;;;4958333;28;20188;-73
2023/06/29 02:53:27;;;;;;;3.90;2.73;;;;;;;;;;4947350;29;20188;-73
2023/06/29 02:56:31;;;;;;;5.63;2.80;;;;;;;;;;4946879;29;20180;-72
2023/06/29 02:59:36;;;;;;;3.63;2.53;;;;;;;;;;4947417;29;20188;-73
2023/06/29 03:02:40;;;;;;;5.60;2.43;;;;;;;;;;4946883;28;20219;-73
2023/06/29 03:05:45;;;;;;;4.73;2.57;;;;;;;;;;4936096;29;20212;-73
2023/06/29 03:08:49;;;;;;;4.17;2.87;;;;;;;;;;4937035;29;20184;-73
2023/06/29 03:11:54;;;;;;;3.77;2.40;;;;;;;;;;4958028;28;20679;-73
2023/06/29 03:14:59;;;;;;;3.70;2.80;;;;;;;;;;4946812;29;20184;-73
2023/06/29 03:18:03;;;;;;;3.47;2.53;;;;;;;;;;4936290;29;20196;-73
2023/06/29 03:21:07;;;;;;;4.37;2.83;;;;;;;;;;4936198;29;20207;-73
2023/06/29 03:24:11;;;;;;;4.37;2.73;;;;;;;;;;4936346;29;20199;-73
2023/06/29 03:27:15;;;;;;;4.87;2.80;;;;;;;;;;4946708;29;20200;-73
2023/06/29 03:30:20;;;;;;;7.47;3.20;;;;;;;;;;4936019;29;20195;-73
2023/06/29 03:33:23;;;;;;;6.00;3.37;;;;;;;;;;4936702;29;20635;-73
2023/06/29 03:36:28;;;;;;;3.37;2.90;;;;;;;;;;4936327;29;20184;-73
2023/06/29 03:39:32;;;;;;;4.50;3.10;;;;;;;;;;4936308;29;20184;-73
2023/06/29 03:42:36;;;;;;;3.63;3.20;;;;;;;;;;4936195;29;20215;-73
2023/06/29 03:45:40;;;;;;;3.33;2.70;;;;;;;;;;4946510;29;20208;-73
2023/06/29 03:48:44;;;;;;;6.70;3.00;;;;;;;;;;4936378;29;20184;-73
2023/06/29 03:51:48;;;;;;;4.40;3.30;;;;;;;;;;4957303;28;20220;-73
2023/06/29 03:54:53;;;;;;;5.17;3.20;;;;;;;;;;4936160;29;20521;-73
2023/06/29 03:57:57;;;;;;;3.80;2.97;;;;;;;;;;4946350;29;20188;-73
2023/06/29 04:01:02;;;;;;;3.57;2.70;;;;;;;;;;4935866;29;20184;-73
2023/06/29 04:04:06;;;;;;;5.23;3.30;;;;;;;;;;4936280;29;20204;-73
2023/06/29 04:07:10;;;;;;;5.43;3.00;;;;;;;;;;4936085;29;20176;-73
2023/06/29 04:10:14;;;;;;;4.90;3.33;;;;;;;;;;4935700;29;20196;-73
2023/06/29 04:13:18;;;;;;;3.13;2.83;;;;;;;;;;4935986;29;20188;-73
2023/06/29 04:16:22;;;;;;;6.63;3.20;;;;;;;;;;4937596;29;20181;-73
2023/06/29 04:19:26;;;;;;;6.73;3.00;;;;;;;;;;4939497;29;20181;-73
2023/06/29 04:22:31;;;;;;;3.50;2.90;;;;;;;;;;4939626;29;20698;-73
2023/06/29 04:25:35;;;;;;;3.07;2.77;;;;;;;;;;4939872;29;20212;-72
2023/06/29 04:28:44;;;;;;;4.20;2.87;;;;;;;;;;4939445;29;20184;-73
2023/06/29 04:31:48;;;;;;;3.60;3.13;;;;;;;;;;4939175;29;20738;-73
2023/06/29 04:34:52;;;;;;;4.97;3.17;;;;;;;;;;4961323;28;20184;-73
2023/06/29 04:37:56;;;;;;;6.53;2.83;;;;;;;;;;4939861;29;20189;-73
2023/06/29 04:41:03;;;;;;;3.87;3.30;;;;;;;;;;4938484;29;20192;-73
2023/06/29 04:44:08;;;;;;;3.03;2.73;;;;;;;;;;4949754;29;20184;-73
2023/06/29 04:47:12;;;;;;;6.27;3.50;;;;;;;;;;4949429;29;20176;-73
2023/06/29 04:50:25;;;;;;;4.93;3.60;;;;;;;;;;4939109;29;20189;-73
2023/06/29 04:53:29;;;;;;;4.93;3.63;;;;;;;;;;4939587;29;20181;-73
2023/06/29 04:56:33;;;;;;;5.67;3.13;;;;;;;;;;4938509;29;20180;-73
2023/06/29 04:59:37;;;;;;;3.03;2.80;;;;;;;;;;4939051;29;20184;-73
2023/06/29 05:02:42;;;;;;;3.40;3.10;;;;;;;;;;4949165;28;20228;-73
2023/06/29 05:05:46;;;;;;;6.00;2.90;;;;;;;;;;4938971;29;20682;-72
2023/06/29 05:08:50;;;;;;;6.77;2.87;;;;;;;;;;4959963;28;20195;-73
2023/06/29 05:11:54;;;;;;;4.63;2.97;;;;;;;;;;4948613;29;20568;-73
2023/06/29 05:15:05;;;;;;;6.47;3.17;;;;;;;;;;4938668;29;20180;-73
2023/06/29 05:18:09;;;;;;;3.97;3.10;;;;;;;;;;4948770;29;20671;-73
2023/06/29 05:21:14;;;;;;;5.20;3.37;;;;;;;;;;4938172;29;20235;-73
2023/06/29 05:24:18;;;;;;;7.93;3.60;;;;;;;;;;4937658;29;20177;-73
2023/06/29 05:27:22;;;;;;;5.17;4.37;;;;;;;;;;4958996;28;20177;-73
2023/06/29 05:30:26;;;;;;;5.80;3.23;;;;;;;;;;4959564;28;20184;-73
2023/06/29 05:33:31;;;;;;;3.40;3.10;;;;;;;;;;4959605;28;20188;-72
2023/06/29 05:36:35;;;;;;;6.93;3.40;;;;;;;;;;4938379;29;20640;-73
2023/06/29 05:39:39;;;;;;;5.27;3.57;;;;;;;;;;4959588;28;20200;-73
2023/06/29 05:42:43;;;;;;;4.43;3.97;;;;;;;;;;4938548;29;20220;-73
2023/06/29 05:45:48;;;;;;;5.13;3.30;;;;;;;;;;4938201;29;20212;-72
2023/06/29 05:48:52;;;;;;;8.23;4.37;;;;;;;;;;4938292;29;20176;-73
2023/06/29 05:51:56;;;;;;;7.33;4.00;;;;;;;;;;4937888;29;20220;-73
2023/06/29 05:55:02;;;;;;;6.80;4.13;;;;;;;;;;4948158;29;20199;-72
2023/06/29 05:58:06;;;;;;;7.77;4.27;;;;;;;;;;4938281;29;20200;-72
2023/06/29 06:01:10;;;;;;;6.30;4.13;;;;;;;;;;4947908;29;20196;-72
2023/06/29 06:04:14;;;;;;;9.97;4.40;;;;;;;;;;4937023;29;20184;-72
2023/06/29 06:07:28;;;;;;;8.03;5.90;;;;;;;;;;4937992;29;20216;-73
2023/06/29 06:10:32;;;;;;;11.07;5.10;;;;;;;;;;4937703;29;20180;-73
2023/06/29 06:13:36;;;;;;;6.80;4.33;;;;;;;;;;4937456;29;20191;-73
2023/06/29 06:16:41;;;;;;;8.73;4.40;;;;;;;;;;4937382;29;20180;-73
2023/06/29 06:19:45;;;;;;;7.67;5.10;;;;;;;;;;4937187;29;20525;-73
2023/06/29 06:22:49;;;;;;;6.07;4.57;;;;;;;;;;4947378;28;20224;-73
2023/06/29 06:25:53;;;;;;;7.63;4.47;;;;;;;;;;4937463;29;20215;-73
2023/06/29 06:28:58;;;;;;;5.90;4.73;;;;;;;;;;4937142;29;20184;-72
2023/06/29 06:32:02;;;;;;;11.57;4.73;;;;;;;;;;4937210;29;20710;-73
2023/06/29 06:35:12;;;;;;;6.77;4.50;;;;;;;;;;4958543;28;20187;-73
2023/06/29 06:38:15;;;;;;;8.60;4.57;;;;;;;;;;4937634;29;20184;-73
2023/06/29 06:41:19;;;;;;;7.17;4.10;;;;;;;;;;4946616;29;20584;-72
2023/06/29 06:44:24;;;;;;;8.00;4.23;;;;;;;;;;4937290;29;20185;-73
2023/06/29 06:47:33;;;;;;;5.93;4.00;;;;;;;;;;4936967;29;20675;-73
2023/06/29 06:50:37;;;;;;;8.23;4.87;;;;;;;;;;4936788;29;20184;-73
2023/06/29 06:53:41;;;;;;;5.30;4.23;;;;;;;;;;4958268;28;20188;-73
2023/06/29 06:56:45;;;;;;;5.80;4.83;;;;;;;;;;4937751;29;20184;-73
2023/06/29 06:59:49;;;;;;;8.03;4.67;;;;;;;;;;4947375;29;20180;-74
2023/06/29 07:02:53;;;;;;;5.97;3.90;;;;;;;;;;4937004;29;20216;-73
2023/06/29 07:05:58;;;;;;;6.67;4.00;;;;;;;;;;4957965;28;20227;-73
2023/06/29 07:09:03;;;;;;;4.67;2.80;;;;;;;;;;4937138;29;20180;-73
2023/06/29 07:12:09;;;;;;;3.53;2.50;;;;;;;;;;4947329;28;20220;-72
2023/06/29 07:15:14;;;;;;;4.30;2.70;;;;;;;;;;4936657;29;20184;-73
2023/06/29 07:18:17;;;;;;;6.30;3.10;;;;;;;;;;4936524;29;20184;-73
2023/06/29 07:21:22;;;;;;;5.33;2.27;;;;;;;;;;4959434;28;20252;-72
2023/06/29 07:24:27;;;;;;;3.57;2.00;;;;;;;;;;4941016;29;20636;-73
2023/06/29 07:27:31;;;;;;;5.17;2.03;;;;;;;;;;4940852;29;20208;-73
2023/06/29 07:30:35;;;;;;;3.60;2.00;;;;;;;;;;4962320;28;20180;-73
2023/06/29 07:33:41;;;;;;;2.47;1.63;;;;;;;;;;4939629;29;20196;-73
2023/06/29 07:36:45;;;;;;;3.80;1.97;;;;;;;;;;4940833;29;20185;-73
2023/06/29 07:39:49;;;;;;;2.57;2.03;;;;;;;;;;4941552;29;20189;-73
2023/06/29 07:42:54;;;;;;;5.83;1.90;;;;;;;;;;4940858;29;20222;-73
2023/06/29 07:45:58;;;;;;;1.93;1.73;;;;;;;;;;4950362;29;20208;-73
2023/06/29 07:49:02;;;;;;;3.27;2.20;;;;;;;;;;4950265;29;20196;-72
2023/06/29 07:52:07;;;;;;;4.93;2.20;;;;;;;;;;4955901;28;20222;-73
2023/06/29 07:55:10;;;;;;;4.65;1.83;;;;;;;;;;4967807;28;20188;-73
2023/06/29 07:58:15;;;;;;;2.55;1.77;;;;;;;;;;4957123;28;20177;-73
2023/06/29 08:01:19;;;;;;;7.07;2.22;;;;;;;;;;4946630;29;20712;-73
2023/06/29 08:04:23;;;;;;;6.05;2.00;;;;;;;;;;4967394;28;20177;-73
2023/06/29 08:07:27;;;;;;;5.75;1.90;;;;;;;;;;4946094;29;20211;-72
2023/06/29 08:10:31;;;;;;;3.67;1.88;;;;;;;;;;4945300;29;20179;-72
2023/06/29 08:13:35;;;;;;;4.55;2.00;;;;;;;;;;4945659;29;20204;-73
2023/06/29 08:16:40;;;;;;;3.50;1.73;;;;;;;;;;4945461;29;20190;-73
2023/06/29 08:19:44;;;;;;;4.47;1.33;;;;;;;;;;4945304;29;20212;-72
2023/06/29 08:22:48;;;;;;;3.22;1.50;;;;;;;;;;5017122;22;20584;-71
2023/06/29 08:25:52;;;;;;;4.75;1.38;;;;;;;;;;5000269;28;20186;-70
2023/06/29 08:28:56;;;;;;;4.20;1.60;;;;;;;;;;5000085;28;20206;-70
2023/06/29 08:32:00;;;;;;;2.05;1.50;;;;;;;;;;4999776;28;20217;-71
2023/06/29 08:35:05;;;;;;;2.03;1.38;;;;;;;;;;4999864;28;20198;-71
2023/06/29 08:38:09;;;;;;;5.07;1.48;;;;;;;;;;4999528;28;20193;-70
2023/06/29 08:41:13;;;;;;;4.47;1.50;;;;;;;;;;4988261;28;20696;-70
2023/06/29 08:44:19;;;;;;;7.07;1.75;;;;;;;;;;5000132;28;20212;-70
2023/06/29 08:47:24;;;;;;;4.38;1.60;;;;;;;;;;4999958;28;20557;-70
2023/06/29 08:50:30;;;;;;;2.35;1.63;;;;;;;;;;4999916;28;20175;-70
2023/06/29 08:53:34;;;;;;;3.95;1.52;;;;;;;;;;4999713;28;20206;-70
2023/06/29 08:56:38;;;;;;;2.20;1.50;;;;;;;;;;4999156;28;20170;-70
2023/06/29 08:59:44;;;;;;;2.80;1.65;;;;;;;;;;4999818;28;20178;-70
2023/06/29 09:02:52;;;;;;;3.03;1.48;;;;;;;;;;4985769;28;20540;-70
2023/06/29 09:05:56;;;;;;;3.47;1.52;;;;;;;;;;4995882;28;20540;-70
2023/06/29 09:09:01;;;;;;;22.08;2.20;;;;;;;;;;4996161;28;20183;-70
2023/06/29 09:12:06;;;;;;;4.43;1.58;;;;;;;;;;4996447;28;20592;-70
2023/06/29 09:15:10;;;;;;;4.80;1.48;;;;;;;;;;4996679;28;20187;-71
2023/06/29 09:18:14;;;;;;;2.28;1.35;;;;;;;;;;4996570;28;20198;-70
2023/06/29 09:21:21;;;;;;;8.52;1.80;;;;;;;;;;4995446;28;20226;-71
2023/06/29 09:24:28;;;;;;;3.92;1.30;;;;;;;;;;4996476;28;20182;-70
2023/06/29 09:27:36;;;;;;;2.60;1.42;;;;;;;;;;4996355;28;20539;-70
2023/06/29 09:30:41;;;;;;;2.20;1.45;;;;;;;;;;4996215;28;20638;-71
2023/06/29 09:33:44;;;;;;;2.10;1.30;;;;;;;;;;4996177;28;20190;-70
2023/06/29 09:36:48;;;;;;;2.17;1.60;;;;;;;;;;4995831;28;20559;-70
2023/06/29 09:39:56;;;;;;;3.15;1.60;;;;;;;;;;4996054;28;20179;-70
2023/06/29 09:43:05;;;;;;;3.10;1.75;;;;;;;;;;4984303;28;20219;-70
2023/06/29 09:46:09;;;;;;;2.88;1.50;;;;;;;;;;4995653;28;20178;-70
2023/06/29 09:49:14;;;;;;;2.15;1.20;;;;;;;;;;4995059;28;20174;-71
2023/06/29 09:52:19;;;;;;;3.65;1.45;;;;;;;;;;4995715;28;20218;-71
2023/06/29 09:55:30;;;;;;;4.28;1.42;;;;;;;;;;4996105;28;20182;-70
2023/06/29 09:58:34;;;;;;;2.65;1.58;;;;;;;;;;4995779;28;20175;-70
2023/06/29 10:01:40;;;;;;;2.00;1.45;;;;;;;;;;4995418;28;20218;-70
2023/06/29 10:04:45;;;;;;;2.33;1.60;;;;;;;;;;4995954;28;20527;-70
2023/06/29 10:07:53;;;;;;;4.60;1.45;;;;;;;;;;4995753;28;20202;-70
2023/06/29 10:11:01;;;;;;;3.70;1.90;;;;;;;;;;4994836;28;20179;-70
2023/06/29 10:14:07;;;;;;;3.03;1.30;;;;;;;;;;4995172;28;20203;-70
2023/06/29 10:17:30;;;;;;;6.57;2.70;;;;;;;;;;4995253;28;20206;-70
2023/06/29 10:20:36;;;;;;;3.47;2.10;;;;;;;;;;4994944;28;20625;-70
2023/06/29 10:23:44;;;;;;;2.85;1.52;;;;;;;;;;4994601;28;20203;-70
2023/06/29 10:26:49;;;;;;;4.50;1.23;;;;;;;;;;4994848;28;20230;-70
2023/06/29 10:29:53;;;;;;;1.90;1.10;;;;;;;;;;4994817;28;20516;-70
2023/06/29 10:32:57;;;;;;;2.60;1.30;;;;;;;;;;4995042;28;20736;-70
2023/06/29 10:36:02;;;;;;;2.80;1.42;;;;;;;;;;4994819;28;20179;-70
2023/06/29 10:39:39;;;;;;;3.58;1.30;;;;;;;;;;4993898;28;20202;-70
2023/06/29 10:42:43;;;;;;;1.92;1.40;;;;;;;;;;4994463;28;20221;-70
2023/06/29 10:45:48;;;;;;;2.42;1.58;;;;;;;;;;4994892;28;20191;-70
2023/06/29 10:49:01;;;;;;;5.70;1.35;;;;;;;;;;4993947;28;20638;-71
2023/06/29 10:52:06;;;;;;;3.08;1.35;;;;;;;;;;5005025;28;20214;-71
2023/06/29 10:55:17;;;;;;;2.30;1.40;;;;;;;;;;4994926;28;20183;-70
2023/06/29 10:58:31;;;;;;;3.30;1.42;;;;;;;;;;4994521;28;20178;-70
2023/06/29 11:01:36;;;;;;;2.42;1.40;;;;;;;;;;4993602;28;20222;-70
2023/06/29 11:04:40;;;;;;;4.22;1.38;;;;;;;;;;4994193;28;20198;-70
2023/06/29 11:07:47;;;;;;;4.72;1.40;;;;;;;;;;4994337;28;20225;-70
2023/06/29 11:10:51;;;;;;;3.00;1.60;;;;;;;;;;4993559;28;20182;-70
2023/06/29 11:13:56;;;;;;;4.13;1.40;;;;;;;;;;5004461;28;20202;-70
2023/06/29 11:17:01;;;;;;;4.63;1.60;;;;;;;;;;4994278;28;20561;-70
2023/06/29 11:20:06;;;;;;;3.35;1.10;;;;;;;;;;4994175;28;20526;-71
2023/06/29 11:23:10;;;;;;;2.38;1.30;;;;;;;;;;4992869;28;20696;-71
2023/06/29 11:26:14;;;;;;;2.78;1.17;;;;;;;;;;4993655;28;20194;-70
2023/06/29 11:29:18;;;;;;;3.75;1.30;;;;;;;;;;4994056;28;20669;-70
2023/06/29 11:32:24;;;;;;;3.35;1.63;;;;;;;;;;5004269;28;20222;-70
2023/06/29 11:35:31;;;;;;;2.63;1.40;;;;;;;;;;4994118;28;20179;-70
2023/06/29 11:38:35;;;;;;;1.85;1.40;;;;;;;;;;4993402;28;20178;-70
2023/06/29 11:41:40;;;;;;;2.78;1.38;;;;;;;;;;4994497;28;20210;-70
2023/06/29 11:44:45;;;;;;;3.22;1.40;;;;;;;;;;4993943;28;20179;-71
2023/06/29 11:47:56;;;;;;;6.90;1.65;;;;;;;;;;4993685;28;20582;-71
2023/06/29 11:51:00;;;;;;;2.80;1.20;;;;;;;;;;4994112;28;20183;-71
2023/06/29 11:54:07;;;;;;;1.85;1.40;;;;;;;;;;4994128;28;20178;-71
2023/06/29 11:57:15;;;;;;;3.42;1.60;;;;;;;;;;4994344;28;20174;-70
2023/06/29 12:00:19;;;;;;;2.60;1.35;;;;;;;;;;4994001;28;20187;-71
2023/06/29 12:03:25;;;;;;;2.08;1.23;;;;;;;;;;4994020;28;20535;-71
2023/06/29 12:06:30;;;;;;;1.98;1.40;;;;;;;;;;4993895;28;20178;-71
2023/06/29 12:09:35;;;;;;;1.73;1.27;;;;;;;;;;4994133;28;20170;-71
2023/06/29 12:12:42;;;;;;;2.15;1.50;;;;;;;;;;5004577;28;20222;-71
2023/06/29 12:15:46;;;;;;;3.03;1.77;;;;;;;;;;4993609;28;20212;-70
2023/06/29 12:18:51;;;;;;;4.85;1.40;;;;;;;;;;4993073;28;20183;-71
2023/06/29 12:21:55;;;;;;;5.18;1.40;;;;;;;;;;5003891;28;20226;-71
2023/06/29 12:25:00;;;;;;;5.00;1.60;;;;;;;;;;4993425;28;20179;-71
2023/06/29 12:28:04;;;;;;;3.13;1.55;;;;;;;;;;4993595;28;20207;-71
2023/06/29 12:31:08;;;;;;;5.13;1.90;;;;;;;;;;4993462;28;20183;-71
2023/06/29 12:34:12;;;;;;;4.43;1.55;;;;;;;;;;4993909;28;20182;-70
2023/06/29 12:37:16;;;;;;;2.70;1.40;;;;;;;;;;4993945;28;20182;-71
2023/06/29 12:40:21;;;;;;;2.42;1.23;;;;;;;;;;4997256;28;20195;-70
2023/06/29 12:43:25;;;;;;;2.05;1.17;;;;;;;;;;4997237;28;20182;-70
2023/06/29 12:46:29;;;;;;;4.85;1.23;;;;;;;;;;4996892;28;20179;-70
2023/06/29 12:49:33;;;;;;;4.20;1.52;;;;;;;;;;4996783;28;20175;-70
2023/06/29 12:52:37;;;;;;;2.08;1.10;;;;;;;;;;4995941;28;20222;-71
2023/06/29 12:55:41;;;;;;;2.40;1.13;;;;;;;;;;4996712;28;20637;-71
2023/06/29 12:58:46;;;;;;;3.22;1.42;;;;;;;;;;4996260;28;20171;-70
2023/06/29 13:01:50;;;;;;;2.00;1.35;;;;;;;;;;5007263;28;20551;-71
2023/06/29 13:04:54;;;;;;;1.95;1.25;;;;;;;;;;4995799;28;20202;-71
2023/06/29 13:07:58;;;;;;;1.75;1.42;;;;;;;;;;4984742;28;20210;-70
2023/06/29 13:11:04;;;;;;;2.17;1.10;;;;;;;;;;4995785;28;20178;-71
2023/06/29 13:14:08;;;;;;;1.60;1.40;;;;;;;;;;4995796;28;20186;-71
2023/06/29 13:17:14;;;;;;;3.63;1.55;;;;;;;;;;4996813;28;20191;-71
2023/06/29 13:20:18;;;;;;;2.70;1.40;;;;;;;;;;4995642;28;20175;-71
2023/06/29 13:23:22;;;;;;;3.67;1.55;;;;;;;;;;4996198;28;20183;-71
2023/06/29 13:26:27;;;;;;;3.20;1.40;;;;;;;;;;4996448;28;20179;-71
2023/06/29 13:29:33;;;;;;;4.70;1.60;;;;;;;;;;5006693;28;20554;-70
2023/06/29 13:32:37;;;;;;;3.45;1.27;;;;;;;;;;4996016;28;20222;-70
2023/06/29 13:35:41;;;;;;;1.83;1.35;;;;;;;;;;4995355;28;20194;-71
2023/06/29 13:38:45;;;;;;;7.30;1.45;;;;;;;;;;4973342;28;20174;-71
2023/06/29 13:41:50;;;;;;;2.78;1.40;;;;;;;;;;4996102;28;20226;-71
2023/06/29 13:44:54;;;;;;;3.40;1.20;;;;;;;;;;4995258;28;20179;-71
2023/06/29 13:47:59;;;;;;;2.15;1.33;;;;;;;;;;4995656;28;20210;-71
2023/06/29 13:51:03;;;;;;;4.97;1.40;;;;;;;;;;5006139;28;20199;-71
2023/06/29 13:54:08;;;;;;;2.88;1.13;;;;;;;;;;4995933;28;20642;-70
2023/06/29 13:57:12;;;;;;;2.53;1.15;;;;;;;;;;4996191;28;20186;-70
2023/06/29 14:00:17;;;;;;;2.88;1.40;;;;;;;;;;4995859;28;20178;-71
2023/06/29 14:03:21;;;;;;;1.60;1.25;;;;;;;;;;4995233;28;20199;-70
2023/06/29 14:06:25;;;;;;;1.83;1.10;;;;;;;;;;4995490;28;20182;-71
2023/06/29 14:09:30;;;;;;;1.52;1.13;;;;;;;;;;4994749;28;20226;-71
2023/06/29 14:12:34;;;;;;;59.72;6.45;;;;;;;;;;5005655;28;20692;-71
2023/06/29 14:15:38;;;;;;;6.40;1.60;;;;;;;;;;4995292;28;20185;-71
2023/06/29 14:18:42;;;;;;;4.70;1.48;;;;;;;;;;4995498;28;20174;-71
2023/06/29 14:21:46;;;;;;;6.25;1.65;;;;;;;;;;5005516;28;20229;-71
2023/06/29 14:24:50;;;;;;;2.45;1.13;;;;;;;;;;5027432;23;20707;-74
2023/06/29 14:27:54;;;;;;;2.15;1.60;;;;;;;;;;5015978;28;20206;-74
2023/06/29 14:30:58;;;;;;;3.45;1.40;;;;;;;;;;5014986;28;20173;-74
2023/06/29 14:34:02;;;;;;;1.90;1.48;;;;;;;;;;5015638;28;20202;-73
2023/06/29 14:37:07;;;;;;;3.85;1.27;;;;;;;;;;5014844;28;20198;-74
2023/06/29 14:40:11;;;;;;;2.78;1.60;;;;;;;;;;5014666;28;20174;-74
2023/06/29 14:43:16;;;;;;;2.63;1.30;;;;;;;;;;5013790;28;20218;-74
2023/06/29 14:46:19;;;;;;;1.92;1.30;;;;;;;;;;5014886;28;20178;-74
2023/06/29 14:49:24;;;;;;;3.28;1.38;;;;;;;;;;5014504;28;20572;-73
2023/06/29 14:52:27;;;;;;;2.83;1.48;;;;;;;;;;5014649;28;20217;-74
2023/06/29 14:55:32;;;;;;;4.05;1.17;;;;;;;;;;5014520;28;20177;-74
2023/06/29 14:58:36;;;;;;;2.75;1.48;;;;;;;;;;5014761;28;20170;-74
2023/06/29 15:01:40;;;;;;;2.63;1.40;;;;;;;;;;5013470;28;20209;-74
2023/06/29 15:04:44;;;;;;;3.42;1.15;;;;;;;;;;5014552;28;20202;-73
2023/06/29 15:07:48;;;;;;;4.18;1.58;;;;;;;;;;5013666;28;20197;-74
2023/06/29 15:10:53;;;;;;;3.35;1.55;;;;;;;;;;5014263;28;20648;-74
2023/06/29 15:13:57;;;;;;;2.08;1.20;;;;;;;;;;5002405;28;20181;-73
2023/06/29 15:17:01;;;;;;;1.38;1.20;;;;;;;;;;5014282;28;20178;-73
2023/06/29 15:20:06;;;;;;;2.03;1.40;;;;;;;;;;5014296;28;20166;-73
2023/06/29 15:23:10;;;;;;;2.17;1.30;;;;;;;;;;5013992;28;20226;-74
2023/06/29 15:26:14;;;;;;;3.92;1.65;;;;;;;;;;4991250;28;20182;-73
2023/06/29 15:29:18;;;;;;;2.75;1.63;;;;;;;;;;5001750;28;20209;-74
2023/06/29 15:32:22;;;;;;;4.05;1.20;;;;;;;;;;5013963;28;20217;-74
2023/06/29 15:35:26;;;;;;;2.65;1.30;;;;;;;;;;5014236;28;20181;-73
2023/06/29 15:38:31;;;;;;;1.83;1.42;;;;;;;;;;5013240;28;20181;-74
2023/06/29 15:41:36;;;;;;;3.50;1.60;;;;;;;;;;5012850;28;20217;-74
2023/06/29 15:44:40;;;;;;;2.15;1.58;;;;;;;;;;5013060;28;20613;-74
2023/06/29 15:47:45;;;;;;;2.72;1.30;;;;;;;;;;5013678;28;20182;-73
2023/06/29 15:50:49;;;;;;;2.78;1.40;;;;;;;;;;5013649;28;20178;-74
2023/06/29 15:53:54;;;;;;;2.00;1.30;;;;;;;;;;5013429;28;20264;-73
2023/06/29 15:56:57;;;;;;;2.78;1.38;;;;;;;;;;5013605;28;20205;-74
2023/06/29 16:00:02;;;;;;;2.35;1.40;;;;;;;;;;5012594;28;20510;-74
2023/06/29 16:03:15;;;;;;;6.72;1.70;;;;;;;;;;5013360;28;20213;-73
2023/06/29 16:06:27;;;;;;;1.77;1.42;;;;;;;;;;5013665;28;20683;-74
2023/06/29 16:09:33;;;;;;;5.68;1.52;;;;;;;;;;5013942;28;20209;-74
2023/06/29 16:12:37;;;;;;;2.30;1.45;;;;;;;;;;5015695;28;20228;-74
2023/06/29 16:15:41;;;;;;;3.53;1.80;;;;;;;;;;5017524;28;20180;-74
2023/06/29 16:18:46;;;;;;;2.92;1.50;;;;;;;;;;5016756;28;20197;-73
2023/06/29 16:21:51;;;;;;;1.95;1.55;;;;;;;;;;5017459;28;20214;-74
2023/06/29 16:24:55;;;;;;;2.22;1.58;;;;;;;;;;5017868;28;20204;-74
2023/06/29 16:27:59;;;;;;;3.53;1.50;;;;;;;;;;5017805;28;20188;-73
2023/06/29 16:31:04;;;;;;;3.65;1.40;;;;;;;;;;5017887;28;20172;-73
2023/06/29 16:34:08;;;;;;;6.40;1.55;;;;;;;;;;5017840;28;20635;-73
2023/06/29 16:37:12;;;;;;;3.97;1.63;;;;;;;;;;5016953;28;20184;-74
2023/06/29 16:40:16;;;;;;;2.40;1.42;;;;;;;;;;5016750;28;20176;-74
2023/06/29 16:43:20;;;;;;;3.28;1.60;;;;;;;;;;5017551;28;20522;-74
2023/06/29 16:46:24;;;;;;;2.80;1.20;;;;;;;;;;5017466;28;20184;-74
2023/06/29 16:49:28;;;;;;;1.92;1.50;;;;;;;;;;5017404;28;20544;-73
2023/06/29 16:52:32;;;;;;;2.22;1.23;;;;;;;;;;5017419;28;20575;-74
2023/06/29 16:55:36;;;;;;;3.50;1.58;;;;;;;;;;5017506;28;20181;-74
2023/06/29 16:58:40;;;;;;;2.60;1.63;;;;;;;;;;5016063;28;20192;-74
2023/06/29 17:01:44;;;;;;;4.72;1.27;;;;;;;;;;5016451;28;20215;-73
2023/06/29 17:04:48;;;;;;;3.38;1.40;;;;;;;;;;5016035;28;20181;-74
2023/06/29 17:07:53;;;;;;;4.82;1.60;;;;;;;;;;5016914;28;20635;-73
2023/06/29 17:10:58;;;;;;;3.63;1.52;;;;;;;;;;5017255;28;20171;-73
2023/06/29 17:14:02;;;;;;;4.60;1.65;;;;;;;;;;5016555;28;20188;-74
2023/06/29 17:17:07;;;;;;;2.45;1.50;;;;;;;;;;5016943;28;20180;-74
2023/06/29 17:20:12;;;;;;;2.38;1.50;;;;;;;;;;5016474;28;20183;-74
2023/06/29 17:23:17;;;;;;;3.15;1.45;;;;;;;;;;5015301;28;20225;-74
2023/06/29 17:26:25;;;;;;;2.72;1.40;;;;;;;;;;5016097;28;20184;-73
2023/06/29 17:29:29;;;;;;;2.03;1.45;;;;;;;;;;5004333;28;20211;-73
2023/06/29 17:32:33;;;;;;;1.65;1.55;;;;;;;;;;5015956;28;20697;-74
2023/06/29 17:35:37;;;;;;;3.03;1.60;;;;;;;;;;5015476;28;20188;-74
2023/06/29 17:38:41;;;;;;;3.67;1.65;;;;;;;;;;5015919;28;20191;-74
2023/06/29 17:41:45;;;;;;;3.05;1.40;;;;;;;;;;5015844;28;20219;-73
2023/06/29 17:44:49;;;;;;;4.20;1.48;;;;;;;;;;5015620;28;20203;-74
2023/06/29 17:47:54;;;;;;;2.15;1.67;;;;;;;;;;5015740;28;20203;-74
2023/06/29 17:51:11;;;;;;;3.83;1.30;;;;;;;;;;5015732;28;20217;-74
2023/06/29 17:54:15;;;;;;;3.50;1.42;;;;;;;;;;5015548;28;20532;-74
2023/06/29 17:57:19;;;;;;;2.67;1.50;;;;;;;;;;5015662;28;20190;-73
2023/06/29 18:00:23;;;;;;;2.58;1.60;;;;;;;;;;5015377;28;20179;-73
2023/06/29 18:03:27;;;;;;;3.40;1.50;;;;;;;;;;5015526;28;20181;-73
2023/06/29 18:06:31;;;;;;;3.60;1.90;;;;;;;;;;5015186;28;20179;-73
2023/06/29 18:09:35;;;;;;;1.98;1.40;;;;;;;;;;5014678;28;20219;-73
2023/06/29 18:12:40;;;;;;;4.13;1.45;;;;;;;;;;5015043;28;20221;-74
2023/06/29 18:15:44;;;;;;;2.92;1.50;;;;;;;;;;5015141;28;20188;-73
2023/06/29 18:18:48;;;;;;;2.67;1.58;;;;;;;;;;5014130;28;20671;-73
2023/06/29 18:21:52;;;;;;;5.13;1.70;;;;;;;;;;5003109;28;20215;-73
2023/06/29 18:24:59;;;;;;;2.23;1.40;;;;;;;;;;5002891;28;20200;-74
2023/06/29 18:28:03;;;;;;;8.43;1.53;;;;;;;;;;5014992;28;20178;-73